sensor_id;sensor_type;location;lat;lon;timestamp;pressure;altitude;pressure_sealevel;temperature;humidity
21129;BME280;10722;51.910;8.352;2023-12-20T00:00:03;100571.44;;;7.51;100.00
21129;BME280;10722;51.910;8.352;2023-12-20T00:02:48;100566.97;;;7.44;100.00
21129;BME280;10722;51.910;8.352;2023-12-20T00:05:33;100569.84;;;7.24;100.00
21129;BME280;10722;51.910;8.352;2023-12-20T00:08:18;100560.81;;;7.40;100.00
21129;BME280;10722;51.910;8.352;2023-12-20T00:11:03;100573.69;;;7.40;100.00
21129;BME280;10722;51.910;8.352;2023-12-20T00:13:49;100571.88;;;7.36;100.00
21129;BME280;10722;51.910;8.352;2023-12-20T00:16:35;100583.66;;;7.28;100.00
21129;BME280;10722;51.910;8.352;2023-12-20T00:19:20;100578.28;;;7.20;100.00
21129;BME280;10722;51.910;8.352;2023-12-20T00:22:06;100580.13;;;7.24;100.00
21129;BME280;10722;51.910;8.352;2023-12-20T00:24:51;100578.63;;;7.02;100.00
21129;BME280;10722;51.910;8.352;2023-12-20T00:27:37;100579.81;;;7.13;100.00
21129;BME280;10722;51.910;8.352;2023-12-20T00:30:21;100585.88;;;7.15;100.00
21129;BME280;10722;51.910;8.352;2023-12-20T00:33:06;100581.84;;;7.24;100.00
21129;BME280;10722;51.910;8.352;2023-12-20T00:35:52;100582.41;;;7.15;100.00
21129;BME280;10722;51.910;8.352;2023-12-20T00:38:37;100581.72;;;6.90;100.00
21129;BME280;10722;51.910;8.352;2023-12-20T00:41:22;100583.16;;;7.11;100.00
21129;BME280;10722;51.910;8.352;2023-12-20T00:44:07;100577.16;;;7.10;100.00
21129;BME280;10722;51.910;8.352;2023-12-20T00:46:53;100573.25;;;6.94;100.00
21129;BME280;10722;51.910;8.352;2023-12-20T00:49:38;100577.47;;;6.92;100.00
21129;BME280;10722;51.910;8.352;2023-12-20T00:52:25;100560.28;;;6.90;100.00
21129;BME280;10722;51.910;8.352;2023-12-20T00:55:10;100574.78;;;6.88;100.00
21129;BME280;10722;51.910;8.352;2023-12-20T00:57:55;100574.28;;;6.72;100.00
21129;BME280;10722;51.910;8.352;2023-12-20T01:00:40;100572.63;;;6.73;100.00
21129;BME280;10722;51.910;8.352;2023-12-20T01:03:29;100574.13;;;6.66;100.00
21129;BME280;10722;51.910;8.352;2023-12-20T01:06:14;100581.47;;;6.54;100.00
21129;BME280;10722;51.910;8.352;2023-12-20T01:09:00;100580.34;;;6.46;100.00
21129;BME280;10722;51.910;8.352;2023-12-20T01:11:45;100579.81;;;6.56;100.00
21129;BME280;10722;51.910;8.352;2023-12-20T01:14:30;100576.06;;;6.46;100.00
21129;BME280;10722;51.910;8.352;2023-12-20T01:17:15;100580.53;;;6.52;100.00
21129;BME280;10722;51.910;8.352;2023-12-20T01:20:00;100574.75;;;6.32;100.00
21129;BME280;10722;51.910;8.352;2023-12-20T01:22:45;100587.22;;;6.47;100.00
21129;BME280;10722;51.910;8.352;2023-12-20T01:25:30;100588.06;;;6.47;100.00
21129;BME280;10722;51.910;8.352;2023-12-20T01:28:15;100596.22;;;6.61;100.00
21129;BME280;10722;51.910;8.352;2023-12-20T01:31:00;100596.97;;;6.57;100.00
21129;BME280;10722;51.910;8.352;2023-12-20T01:33:45;100590.09;;;6.56;100.00
21129;BME280;10722;51.910;8.352;2023-12-20T01:36:31;100601.25;;;6.57;100.00
21129;BME280;10722;51.910;8.352;2023-12-20T01:39:17;100596.28;;;6.63;100.00
21129;BME280;10722;51.910;8.352;2023-12-20T01:42:12;100585.66;;;6.52;100.00
21129;BME280;10722;51.910;8.352;2023-12-20T01:44:57;100596.72;;;6.49;100.00
21129;BME280;10722;51.910;8.352;2023-12-20T01:47:42;100612.28;;;6.54;100.00
21129;BME280;10722;51.910;8.352;2023-12-20T01:50:27;100600.25;;;6.53;100.00
21129;BME280;10722;51.910;8.352;2023-12-20T01:53:13;100602.06;;;6.56;100.00
21129;BME280;10722;51.910;8.352;2023-12-20T01:55:59;100593.28;;;6.49;100.00
21129;BME280;10722;51.910;8.352;2023-12-20T01:58:46;100594.13;;;6.48;100.00
21129;BME280;10722;51.910;8.352;2023-12-20T02:01:31;100589.16;;;6.54;100.00
21129;BME280;10722;51.910;8.352;2023-12-20T02:04:17;100590.47;;;6.41;100.00
21129;BME280;10722;51.910;8.352;2023-12-20T02:07:03;100583.88;;;6.22;100.00
21129;BME280;10722;51.910;8.352;2023-12-20T02:09:48;100572.22;;;6.06;100.00
21129;BME280;10722;51.910;8.352;2023-12-20T02:12:33;100582.09;;;6.21;100.00
21129;BME280;10722;51.910;8.352;2023-12-20T02:15:18;100573.28;;;6.13;100.00
21129;BME280;10722;51.910;8.352;2023-12-20T02:18:04;100570.31;;;6.01;100.00
21129;BME280;10722;51.910;8.352;2023-12-20T02:20:49;100559.00;;;5.96;100.00
21129;BME280;10722;51.910;8.352;2023-12-20T02:23:34;100556.44;;;5.96;100.00
21129;BME280;10722;51.910;8.352;2023-12-20T02:26:19;100569.13;;;5.93;100.00
21129;BME280;10722;51.910;8.352;2023-12-20T02:29:04;100567.97;;;5.83;100.00
21129;BME280;10722;51.910;8.352;2023-12-20T02:31:49;100559.94;;;5.74;100.00
21129;BME280;10722;51.910;8.352;2023-12-20T02:34:34;100562.56;;;5.75;100.00
21129;BME280;10722;51.910;8.352;2023-12-20T02:37:20;100568.28;;;5.68;100.00
21129;BME280;10722;51.910;8.352;2023-12-20T02:40:05;100565.72;;;5.68;100.00
21129;BME280;10722;51.910;8.352;2023-12-20T02:42:50;100552.13;;;5.71;100.00
21129;BME280;10722;51.910;8.352;2023-12-20T02:45:35;100563.13;;;5.67;100.00
21129;BME280;10722;51.910;8.352;2023-12-20T02:48:20;100563.06;;;5.65;100.00
21129;BME280;10722;51.910;8.352;2023-12-20T02:51:06;100567.16;;;5.60;100.00
21129;BME280;10722;51.910;8.352;2023-12-20T02:53:51;100561.03;;;5.56;100.00
21129;BME280;10722;51.910;8.352;2023-12-20T02:56:36;100568.56;;;5.52;100.00
21129;BME280;10722;51.910;8.352;2023-12-20T02:59:21;100563.69;;;5.58;100.00
21129;BME280;10722;51.910;8.352;2023-12-20T03:02:06;100563.50;;;5.53;100.00
21129;BME280;10722;51.910;8.352;2023-12-20T03:04:51;100567.16;;;5.60;100.00
21129;BME280;10722;51.910;8.352;2023-12-20T03:07:37;100563.44;;;5.52;100.00
21129;BME280;10722;51.910;8.352;2023-12-20T03:10:22;100571.75;;;5.45;100.00
21129;BME280;10722;51.910;8.352;2023-12-20T03:13:11;100570.22;;;5.50;100.00
21129;BME280;10722;51.910;8.352;2023-12-20T03:15:56;100562.53;;;5.50;100.00
21129;BME280;10722;51.910;8.352;2023-12-20T03:18:41;100571.31;;;5.56;100.00
21129;BME280;10722;51.910;8.352;2023-12-20T03:21:26;100582.78;;;5.66;100.00
21129;BME280;10722;51.910;8.352;2023-12-20T03:24:11;100580.31;;;5.69;100.00
21129;BME280;10722;51.910;8.352;2023-12-20T03:26:56;100572.66;;;5.71;100.00
21129;BME280;10722;51.910;8.352;2023-12-20T03:29:41;100577.78;;;5.71;100.00
21129;BME280;10722;51.910;8.352;2023-12-20T03:32:26;100580.69;;;5.80;100.00
21129;BME280;10722;51.910;8.352;2023-12-20T03:35:11;100566.75;;;5.73;100.00
21129;BME280;10722;51.910;8.352;2023-12-20T03:37:56;100574.47;;;5.73;100.00
21129;BME280;10722;51.910;8.352;2023-12-20T03:40:41;100579.81;;;5.79;100.00
21129;BME280;10722;51.910;8.352;2023-12-20T03:43:26;100569.50;;;5.78;100.00
21129;BME280;10722;51.910;8.352;2023-12-20T03:46:10;100562.50;;;5.74;100.00
21129;BME280;10722;51.910;8.352;2023-12-20T03:48:55;100569.03;;;5.64;100.00
21129;BME280;10722;51.910;8.352;2023-12-20T03:51:40;100551.25;;;5.70;100.00
21129;BME280;10722;51.910;8.352;2023-12-20T03:54:25;100549.63;;;5.72;100.00
21129;BME280;10722;51.910;8.352;2023-12-20T03:57:10;100549.63;;;5.72;100.00
21129;BME280;10722;51.910;8.352;2023-12-20T03:59:55;100535.78;;;5.69;100.00
21129;BME280;10722;51.910;8.352;2023-12-20T04:02:41;100546.84;;;5.66;100.00
21129;BME280;10722;51.910;8.352;2023-12-20T04:05:26;100540.78;;;5.64;100.00
21129;BME280;10722;51.910;8.352;2023-12-20T04:08:11;100541.59;;;5.63;100.00
21129;BME280;10722;51.910;8.352;2023-12-20T04:10:57;100534.69;;;5.60;100.00
21129;BME280;10722;51.910;8.352;2023-12-20T04:13:42;100537.50;;;5.68;100.00
21129;BME280;10722;51.910;8.352;2023-12-20T04:16:27;100523.84;;;5.69;100.00
21129;BME280;10722;51.910;8.352;2023-12-20T04:19:12;100520.25;;;5.64;100.00
21129;BME280;10722;51.910;8.352;2023-12-20T04:21:57;100521.50;;;5.75;100.00
21129;BME280;10722;51.910;8.352;2023-12-20T04:24:42;100511.81;;;5.68;100.00
21129;BME280;10722;51.910;8.352;2023-12-20T04:27:27;100523.22;;;5.76;100.00
21129;BME280;10722;51.910;8.352;2023-12-20T04:30:13;100523.19;;;5.75;100.00
21129;BME280;10722;51.910;8.352;2023-12-20T04:32:58;100517.16;;;5.74;100.00
21129;BME280;10722;51.910;8.352;2023-12-20T04:35:43;100518.97;;;5.77;100.00
21129;BME280;10722;51.910;8.352;2023-12-20T04:38:28;100530.94;;;5.76;100.00
21129;BME280;10722;51.910;8.352;2023-12-20T04:41:13;100532.69;;;5.77;100.00
21129;BME280;10722;51.910;8.352;2023-12-20T04:43:58;100542.03;;;5.75;100.00
21129;BME280;10722;51.910;8.352;2023-12-20T04:46:43;100522.47;;;5.79;100.00
21129;BME280;10722;51.910;8.352;2023-12-20T04:49:27;100516.63;;;5.83;100.00
21129;BME280;10722;51.910;8.352;2023-12-20T04:52:12;100523.84;;;5.69;100.00
21129;BME280;10722;51.910;8.352;2023-12-20T04:54:57;100524.81;;;5.73;100.00
21129;BME280;10722;51.910;8.352;2023-12-20T04:57:42;100522.53;;;5.80;100.00
21129;BME280;10722;51.910;8.352;2023-12-20T05:00:28;100528.22;;;5.72;100.00
21129;BME280;10722;51.910;8.352;2023-12-20T05:03:13;100534.31;;;5.75;100.00
21129;BME280;10722;51.910;8.352;2023-12-20T05:05:57;100524.06;;;5.75;100.00
21129;BME280;10722;51.910;8.352;2023-12-20T05:08:42;100517.97;;;5.72;100.00
21129;BME280;10722;51.910;8.352;2023-12-20T05:11:27;100521.31;;;5.71;100.00
21129;BME280;10722;51.910;8.352;2023-12-20T05:14:12;100516.25;;;5.72;100.00
21129;BME280;10722;51.910;8.352;2023-12-20T05:16:57;100516.97;;;5.68;100.00
21129;BME280;10722;51.910;8.352;2023-12-20T05:19:42;100518.75;;;5.71;100.00
21129;BME280;10722;51.910;8.352;2023-12-20T05:22:27;100511.13;;;5.72;100.00
21129;BME280;10722;51.910;8.352;2023-12-20T05:25:12;100503.53;;;5.75;100.00
21129;BME280;10722;51.910;8.352;2023-12-20T05:27:57;100498.22;;;5.71;100.00
21129;BME280;10722;51.910;8.352;2023-12-20T05:30:42;100512.97;;;5.76;100.00
21129;BME280;10722;51.910;8.352;2023-12-20T05:33:28;100508.56;;;5.72;100.00
21129;BME280;10722;51.910;8.352;2023-12-20T05:36:13;100505.06;;;5.70;100.00
21129;BME280;10722;51.910;8.352;2023-12-20T05:38:58;100513.78;;;5.75;100.00
21129;BME280;10722;51.910;8.352;2023-12-20T05:41:43;100513.88;;;5.78;100.00
21129;BME280;10722;51.910;8.352;2023-12-20T05:44:28;100514.75;;;5.79;100.00
21129;BME280;10722;51.910;8.352;2023-12-20T05:47:13;100515.53;;;5.76;100.00
21129;BME280;10722;51.910;8.352;2023-12-20T05:49:58;100503.31;;;5.69;100.00
21129;BME280;10722;51.910;8.352;2023-12-20T05:52:43;100512.00;;;5.73;100.00
21129;BME280;10722;51.910;8.352;2023-12-20T05:55:28;100517.06;;;5.71;100.00
21129;BME280;10722;51.910;8.352;2023-12-20T05:58:13;100510.19;;;5.70;100.00
21129;BME280;10722;51.910;8.352;2023-12-20T06:00:58;100509.31;;;5.70;100.00
21129;BME280;10722;51.910;8.352;2023-12-20T06:03:43;100509.53;;;5.76;100.00
21129;BME280;10722;51.910;8.352;2023-12-20T06:06:28;100519.53;;;5.68;100.00
21129;BME280;10722;51.910;8.352;2023-12-20T06:09:13;100511.03;;;5.69;100.00
21129;BME280;10722;51.910;8.352;2023-12-20T06:11:58;100518.81;;;5.72;100.00
21129;BME280;10722;51.910;8.352;2023-12-20T06:14:43;100515.94;;;5.63;100.00
21129;BME280;10722;51.910;8.352;2023-12-20T06:17:27;100513.44;;;5.65;100.00
21129;BME280;10722;51.910;8.352;2023-12-20T06:20:13;100523.53;;;5.60;100.00
21129;BME280;10722;51.910;8.352;2023-12-20T06:22:58;100521.22;;;5.68;100.00
21129;BME280;10722;51.910;8.352;2023-12-20T06:25:44;100534.13;;;5.69;100.00
21129;BME280;10722;51.910;8.352;2023-12-20T06:28:28;100528.75;;;5.63;100.00
21129;BME280;10722;51.910;8.352;2023-12-20T06:31:13;100532.22;;;5.64;100.00
21129;BME280;10722;51.910;8.352;2023-12-20T06:33:59;100544.28;;;5.66;100.00
21129;BME280;10722;51.910;8.352;2023-12-20T06:36:44;100524.63;;;5.67;100.00
21129;BME280;10722;51.910;8.352;2023-12-20T06:39:29;100524.63;;;5.67;100.00
21129;BME280;10722;51.910;8.352;2023-12-20T06:42:14;100520.25;;;5.64;100.00
21129;BME280;10722;51.910;8.352;2023-12-20T06:44:59;100520.38;;;5.69;100.00
21129;BME280;10722;51.910;8.352;2023-12-20T06:47:44;100516.06;;;5.66;100.00
21129;BME280;10722;51.910;8.352;2023-12-20T06:50:30;100528.09;;;5.69;100.00
21129;BME280;10722;51.910;8.352;2023-12-20T06:53:14;100508.59;;;5.74;100.00
21129;BME280;10722;51.910;8.352;2023-12-20T06:55:59;100511.91;;;5.70;100.00
21129;BME280;10722;51.910;8.352;2023-12-20T06:58:44;100522.28;;;5.74;100.00
21129;BME280;10722;51.910;8.352;2023-12-20T07:01:30;100517.88;;;5.70;100.00
21129;BME280;10722;51.910;8.352;2023-12-20T07:04:15;100516.28;;;5.74;100.00
21129;BME280;10722;51.910;8.352;2023-12-20T07:07:00;100514.75;;;5.79;100.00
21129;BME280;10722;51.910;8.352;2023-12-20T07:09:46;100524.06;;;5.75;100.00
21129;BME280;10722;51.910;8.352;2023-12-20T07:12:31;100524.72;;;5.70;100.00
21129;BME280;10722;51.910;8.352;2023-12-20T07:15:16;100517.16;;;5.74;100.00
21129;BME280;10722;51.910;8.352;2023-12-20T07:18:01;100526.56;;;5.74;100.00
21129;BME280;10722;51.910;8.352;2023-12-20T07:20:46;100521.53;;;5.77;100.00
21129;BME280;10722;51.910;8.352;2023-12-20T07:23:31;100510.25;;;5.72;100.00
21129;BME280;10722;51.910;8.352;2023-12-20T07:26:17;100506.03;;;5.74;100.00
21129;BME280;10722;51.910;8.352;2023-12-20T07:29:02;100504.50;;;5.79;100.00
21129;BME280;10722;51.910;8.352;2023-12-20T07:31:47;100500.31;;;5.82;100.00
21129;BME280;10722;51.910;8.352;2023-12-20T07:34:33;100489.06;;;5.77;100.00
21129;BME280;10722;51.910;8.352;2023-12-20T07:37:21;100489.25;;;5.83;100.00
21129;BME280;10722;51.910;8.352;2023-12-20T07:40:07;100508.78;;;5.80;100.00
21129;BME280;10722;51.910;8.352;2023-12-20T07:42:52;100481.56;;;5.85;100.00
21129;BME280;10722;51.910;8.352;2023-12-20T07:45:37;100494.47;;;5.87;100.00
21129;BME280;10722;51.910;8.352;2023-12-20T07:48:22;100496.38;;;5.92;100.00
21129;BME280;10722;51.910;8.352;2023-12-20T07:51:07;100516.75;;;5.88;100.00
21129;BME280;10722;51.910;8.352;2023-12-20T07:53:52;100496.38;;;5.92;100.00
21129;BME280;10722;51.910;8.352;2023-12-20T07:56:36;100495.50;;;5.92;100.00
21129;BME280;10722;51.910;8.352;2023-12-20T07:59:21;100496.75;;;6.03;100.00
21129;BME280;10722;51.910;8.352;2023-12-20T08:02:17;100487.19;;;5.99;100.00
21129;BME280;10722;51.910;8.352;2023-12-20T08:05:02;100487.81;;;5.92;100.00
21129;BME280;10722;51.910;8.352;2023-12-20T08:07:46;100480.16;;;5.93;100.00
21129;BME280;10722;51.910;8.352;2023-12-20T08:10:32;100492.25;;;5.96;100.00
21129;BME280;10722;51.910;8.352;2023-12-20T08:13:17;100472.47;;;5.93;100.00
21129;BME280;10722;51.910;8.352;2023-12-20T08:16:02;100474.13;;;5.93;100.00
21129;BME280;10722;51.910;8.352;2023-12-20T08:18:51;100469.84;;;5.92;100.00
21129;BME280;10722;51.910;8.352;2023-12-20T08:21:36;100478.34;;;5.91;100.00
21129;BME280;10722;51.910;8.352;2023-12-20T08:24:23;100477.66;;;5.95;100.00
21129;BME280;10722;51.910;8.352;2023-12-20T08:27:08;100486.97;;;5.93;100.00
21129;BME280;10722;51.910;8.352;2023-12-20T08:29:53;100495.50;;;5.92;100.00
21129;BME280;10722;51.910;8.352;2023-12-20T08:32:38;100484.50;;;5.94;100.00
21129;BME280;10722;51.910;8.352;2023-12-20T08:35:23;100483.66;;;5.95;100.00
21129;BME280;10722;51.910;8.352;2023-12-20T08:38:07;100483.59;;;5.94;100.00
21129;BME280;10722;51.910;8.352;2023-12-20T08:40:52;100477.75;;;5.98;100.00
21129;BME280;10722;51.910;8.352;2023-12-20T08:43:38;100475.38;;;6.04;100.00
21129;BME280;10722;51.910;8.352;2023-12-20T08:46:23;100477.22;;;6.08;100.00
21129;BME280;10722;51.910;8.352;2023-12-20T08:49:08;100479.66;;;6.03;100.00
21129;BME280;10722;51.910;8.352;2023-12-20T08:51:53;100476.31;;;6.06;100.00
21129;BME280;10722;51.910;8.352;2023-12-20T08:54:38;100474.63;;;6.06;100.00
21129;BME280;10722;51.910;8.352;2023-12-20T08:57:23;100468.78;;;6.12;100.00
21129;BME280;10722;51.910;8.352;2023-12-20T09:00:09;100462.06;;;6.16;100.00
21129;BME280;10722;51.910;8.352;2023-12-20T09:02:54;100457.69;;;6.13;100.00
21129;BME280;10722;51.910;8.352;2023-12-20T09:05:39;100472.13;;;6.10;100.00
21129;BME280;10722;51.910;8.352;2023-12-20T09:08:24;100462.91;;;6.16;100.00
21129;BME280;10722;51.910;8.352;2023-12-20T09:11:09;100459.09;;;6.03;100.00
21129;BME280;10722;51.910;8.352;2023-12-20T09:13:54;100460.81;;;6.03;100.00
21129;BME280;10722;51.910;8.352;2023-12-20T09:16:39;100476.22;;;6.03;100.00
21129;BME280;10722;51.910;8.352;2023-12-20T09:19:25;100473.50;;;5.98;100.00
21129;BME280;10722;51.910;8.352;2023-12-20T09:22:11;100471.84;;;6.00;100.00
21129;BME280;10722;51.910;8.352;2023-12-20T09:24:56;100464.94;;;5.99;100.00
21129;BME280;10722;51.910;8.352;2023-12-20T09:27:41;100465.88;;;6.01;100.00
21129;BME280;10722;51.910;8.352;2023-12-20T09:30:26;100471.28;;;6.09;100.00
21129;BME280;10722;51.910;8.352;2023-12-20T09:33:12;100461.81;;;6.08;100.00
21129;BME280;10722;51.910;8.352;2023-12-20T09:35:57;100462.81;;;6.13;100.00
21129;BME280;10722;51.910;8.352;2023-12-20T09:38:43;100453.47;;;6.15;100.00
21129;BME280;10722;51.910;8.352;2023-12-20T09:41:35;100449.19;;;6.14;100.00
21129;BME280;10722;51.910;8.352;2023-12-20T09:44:22;100450.13;;;6.18;100.00
21129;BME280;10722;51.910;8.352;2023-12-20T09:47:07;100453.63;;;6.20;100.00
21129;BME280;10722;51.910;8.352;2023-12-20T09:49:53;100451.75;;;6.14;100.00
21129;BME280;10722;51.910;8.352;2023-12-20T09:52:39;100446.69;;;6.17;100.00
21129;BME280;10722;51.910;8.352;2023-12-20T09:55:25;100456.66;;;6.08;100.00
21129;BME280;10722;51.910;8.352;2023-12-20T09:58:10;100457.84;;;6.18;100.00
21129;BME280;10722;51.910;8.352;2023-12-20T10:00:55;100468.72;;;6.11;100.00
21129;BME280;10722;51.910;8.352;2023-12-20T10:03:41;100472.22;;;6.13;100.00
21129;BME280;10722;51.910;8.352;2023-12-20T10:06:26;100467.16;;;6.14;100.00
21129;BME280;10722;51.910;8.352;2023-12-20T10:09:11;100469.84;;;6.19;100.00
21129;BME280;10722;51.910;8.352;2023-12-20T10:11:57;100477.66;;;6.22;100.00
21129;BME280;10722;51.910;8.352;2023-12-20T10:14:42;100458.78;;;6.21;100.00
21129;BME280;10722;51.910;8.352;2023-12-20T10:17:27;100450.56;;;6.32;100.00
21129;BME280;10722;51.910;8.352;2023-12-20T10:20:13;100437.63;;;6.28;100.00
21129;BME280;10722;51.910;8.352;2023-12-20T10:22:59;100437.81;;;6.35;100.00
21129;BME280;10722;51.910;8.352;2023-12-20T10:25:55;100431.09;;;6.40;100.00
21129;BME280;10722;51.910;8.352;2023-12-20T10:28:40;100434.41;;;6.36;100.00
21129;BME280;10722;51.910;8.352;2023-12-20T10:31:27;100426.91;;;6.43;100.00
21129;BME280;10722;51.910;8.352;2023-12-20T10:34:12;100424.94;;;6.35;100.00
21129;BME280;10722;51.910;8.352;2023-12-20T10:36:59;100420.91;;;6.43;100.00
21129;BME280;10722;51.910;8.352;2023-12-20T10:39:49;100426.84;;;6.42;100.00
21129;BME280;10722;51.910;8.352;2023-12-20T10:42:35;100418.38;;;6.44;100.00
21129;BME280;10722;51.910;8.352;2023-12-20T10:45:20;100426.97;;;6.45;100.00
21129;BME280;10722;51.910;8.352;2023-12-20T10:48:06;100419.16;;;6.42;100.00
21129;BME280;10722;51.910;8.352;2023-12-20T10:50:52;100427.88;;;6.47;100.00
21129;BME280;10722;51.910;8.352;2023-12-20T10:53:40;100410.66;;;6.44;100.00
21129;BME280;10722;51.910;8.352;2023-12-20T10:56:29;100407.13;;;6.41;100.00
21129;BME280;10722;51.910;8.352;2023-12-20T10:59:19;100410.72;;;6.46;100.00
21129;BME280;10722;51.910;8.352;2023-12-20T11:02:05;100408.16;;;6.46;100.00
21129;BME280;10722;51.910;8.352;2023-12-20T11:04:55;100406.31;;;6.42;100.00
21129;BME280;10722;51.910;8.352;2023-12-20T11:07:47;100419.53;;;6.54;100.00
21129;BME280;10722;51.910;8.352;2023-12-20T11:13:37;100410.06;;;6.53;100.00
21129;BME280;10722;51.910;8.352;2023-12-20T11:16:25;100419.69;;;6.60;100.00
21129;BME280;10722;51.910;8.352;2023-12-20T11:19:19;100417.03;;;6.57;100.00
21129;BME280;10722;51.910;8.352;2023-12-20T11:22:04;100423.72;;;6.50;100.00
21129;BME280;10722;51.910;8.352;2023-12-20T11:24:52;100415.09;;;6.48;100.00
21129;BME280;10722;51.910;8.352;2023-12-20T11:27:41;100426.50;;;6.58;100.00
21129;BME280;10722;51.910;8.352;2023-12-20T11:30:47;100404.44;;;6.66;100.00
21129;BME280;10722;51.910;8.352;2023-12-20T11:33:36;100416.25;;;6.60;100.00
21129;BME280;10722;51.910;8.352;2023-12-20T11:36:25;100396.81;;;6.69;100.00
21129;BME280;10722;51.910;8.352;2023-12-20T11:39:10;100375.25;;;6.64;100.00
21129;BME280;10722;51.910;8.352;2023-12-20T11:42:04;100371.16;;;6.71;100.00
21129;BME280;10722;51.910;8.352;2023-12-20T11:44:50;100387.28;;;6.65;100.00
21129;BME280;10722;51.910;8.352;2023-12-20T11:47:35;100370.84;;;6.90;100.00
21129;BME280;10722;51.910;8.352;2023-12-20T11:50:21;100355.34;;;6.89;100.00
21129;BME280;10722;51.910;8.352;2023-12-20T11:53:07;100355.00;;;7.08;100.00
21129;BME280;10722;51.910;8.352;2023-12-20T11:55:54;100351.56;;;7.08;100.00
21129;BME280;10722;51.910;8.352;2023-12-20T11:58:39;100332.69;;;7.42;100.00
21129;BME280;10722;51.910;8.352;2023-12-20T12:01:24;100321.00;;;7.56;100.00
21129;BME280;10722;51.910;8.352;2023-12-20T12:04:10;100310.06;;;7.29;100.00
21129;BME280;10722;51.910;8.352;2023-12-20T12:06:55;100309.09;;;7.61;100.00
21129;BME280;10722;51.910;8.352;2023-12-20T12:09:41;100307.47;;;7.29;100.00
21129;BME280;10722;51.910;8.352;2023-12-20T12:12:26;100304.22;;;7.36;100.00
21129;BME280;10722;51.910;8.352;2023-12-20T12:15:11;100293.66;;;7.24;100.00
21129;BME280;10722;51.910;8.352;2023-12-20T12:17:56;100309.72;;;7.15;100.00
21129;BME280;10722;51.910;8.352;2023-12-20T12:20:42;100303.06;;;7.23;100.00
21129;BME280;10722;51.910;8.352;2023-12-20T12:23:27;100299.63;;;7.23;100.00
21129;BME280;10722;51.910;8.352;2023-12-20T12:26:12;100312.41;;;7.19;100.00
21129;BME280;10722;51.910;8.352;2023-12-20T12:28:57;100307.84;;;7.09;100.00
21129;BME280;10722;51.910;8.352;2023-12-20T12:31:42;100321.41;;;7.02;100.00
21129;BME280;10722;51.910;8.352;2023-12-20T12:34:28;100300.25;;;7.14;100.00
21129;BME280;10722;51.910;8.352;2023-12-20T12:37:13;100293.34;;;7.11;100.00
21129;BME280;10722;51.910;8.352;2023-12-20T12:39:58;100296.09;;;7.19;100.00
21129;BME280;10722;51.910;8.352;2023-12-20T12:42:45;100291.94;;;7.24;100.00
21129;BME280;10722;51.910;8.352;2023-12-20T12:45:30;100281.50;;;7.18;100.00
21129;BME280;10722;51.910;8.352;2023-12-20T12:48:15;100284.38;;;7.30;100.00
21129;BME280;10722;51.910;8.352;2023-12-20T12:51:00;100289.44;;;7.27;100.00
21129;BME280;10722;51.910;8.352;2023-12-20T12:53:45;100275.72;;;7.28;100.00
21129;BME280;10722;51.910;8.352;2023-12-20T12:56:30;100282.63;;;7.29;100.00
21129;BME280;10722;51.910;8.352;2023-12-20T12:59:15;100257.69;;;7.27;100.00
21129;BME280;10722;51.910;8.352;2023-12-20T13:02:00;100248.28;;;7.29;100.00
21129;BME280;10722;51.910;8.352;2023-12-20T13:04:45;100239.84;;;7.34;100.00
21129;BME280;10722;51.910;8.352;2023-12-20T13:07:31;100253.03;;;7.48;100.00
21129;BME280;10722;51.910;8.352;2023-12-20T13:10:16;100251.84;;;7.34;100.00
21129;BME280;10722;51.910;8.352;2023-12-20T13:13:01;100246.94;;;7.45;100.00
21129;BME280;10722;51.910;8.352;2023-12-20T13:15:46;100236.91;;;7.55;100.00
21129;BME280;10722;51.910;8.352;2023-12-20T13:18:31;100226.56;;;7.54;100.00
21129;BME280;10722;51.910;8.352;2023-12-20T13:21:16;100223.97;;;7.52;100.00
21129;BME280;10722;51.910;8.352;2023-12-20T13:24:01;100227.56;;;7.60;100.00
21129;BME280;10722;51.910;8.352;2023-12-20T13:26:46;100248.38;;;7.70;100.00
21129;BME280;10722;51.910;8.352;2023-12-20T13:29:32;100248.53;;;7.79;100.00
21129;BME280;10722;51.910;8.352;2023-12-20T13:32:17;100222.13;;;7.48;100.00
21129;BME280;10722;51.910;8.352;2023-12-20T13:35:02;100204.72;;;6.99;100.00
21129;BME280;10722;51.910;8.352;2023-12-20T13:37:48;100226.25;;;7.02;100.00
21129;BME280;10722;51.910;8.352;2023-12-20T13:40:33;100239.94;;;7.01;100.00
21129;BME280;10722;51.910;8.352;2023-12-20T13:43:18;100262.47;;;6.43;100.00
21129;BME280;10722;51.910;8.352;2023-12-20T13:46:03;100278.16;;;6.54;100.00
21129;BME280;10722;51.910;8.352;2023-12-20T13:48:48;100293.16;;;6.39;100.00
21129;BME280;10722;51.910;8.352;2023-12-20T13:51:33;100306.75;;;6.35;100.00
21129;BME280;10722;51.910;8.352;2023-12-20T13:54:18;100313.16;;;6.19;100.00
21129;BME280;10722;51.910;8.352;2023-12-20T13:57:03;100315.06;;;5.96;100.00
21129;BME280;10722;51.910;8.352;2023-12-20T14:00:00;100324.03;;;5.81;100.00
21129;BME280;10722;51.910;8.352;2023-12-20T14:02:46;100331.34;;;5.96;100.00
21129;BME280;10722;51.910;8.352;2023-12-20T14:05:31;100325.47;;;6.00;100.00
21129;BME280;10722;51.910;8.352;2023-12-20T14:08:16;100313.81;;;6.12;100.00
21129;BME280;10722;51.910;8.352;2023-12-20T14:11:02;100320.66;;;6.11;100.00
21129;BME280;10722;51.910;8.352;2023-12-20T14:13:47;100323.41;;;6.17;100.00
21129;BME280;10722;51.910;8.352;2023-12-20T14:16:32;100321.16;;;6.29;100.00
21129;BME280;10722;51.910;8.352;2023-12-20T14:19:17;100313.31;;;6.25;100.00
21129;BME280;10722;51.910;8.352;2023-12-20T14:22:02;100319.59;;;6.35;100.00
21129;BME280;10722;51.910;8.352;2023-12-20T14:24:48;100301.88;;;6.44;100.00
21129;BME280;10722;51.910;8.352;2023-12-20T14:27:33;100317.38;;;6.47;100.00